Terminal Aerodrome Forecast
Issued by NWS

Home | Current Version | Previous Version | Text Only | Print | Product List | Glossary On
Versions: 1 2 3 4 5 6 7 8 9 10 11 12 13 14 15 16 17 18 19 20 21 22 23 24 25 26 27 28 29 30 31 32 33 34 35
000
FTUS45 KBOU 231137
TAFAPA
TAF
KAPA 231137Z 2312/2412 16007KT P6SM BKN220
     FM231300 23006KT P6SM BKN220
     FM231700 15006KT P6SM FEW150 BKN220
     FM232300 29009KT P6SM SCT120 BKN200
     FM240100 VRB05KT P6SM BKN110 BKN200
     FM240300 19008KT P6SM BKN250
     FM241000 35009KT P6SM FEW140 BKN220=

USA.gov is the U.S. government's official web portal to all federal, state and local government web resources and services.